Newtonhill, United Kingdom
Current Conditions -  °F | °C
As of 2:20 AM on Friday 21 Nov 2014 (Local Time) from EGPD Reporting Station
Scattered Clouds Scattered Clouds  
Wind Chill: 45°   Ceiling: Unl
Heat Index: 48°   Visibility: 6mi
Dew Point: 45°   Wind: 8mph
Humidity: 87%   Direction: 120°ESE
Pressure: 30.24"   Gusts: NA
Location:  57.03°N, 2.15°W
Report Text: EGPD 210220Z 12007KT 9999 FEW009 SCT011 09/07 Q1024
Loading
Personal Weather Stations






























Interactive Weather Map New forecast layout! Learn more

10-Day Weather Forecast

Advertisements
Track Severe Weather on mobile